C83 weather

Byron Airport
Byron, California, United States

Public forecast

Using degrees Fahrenheit for public forecast. Weather courtesy of forecast.io.

METAR (pilot weather report)

Closest report is Livermore Municipal Airport, 12.3 nm (22.7 km) SW. Retrieved 2019/03/22 04:53 UTC (56 minutes ago):

KLVK 220453Z AUTO 00000KT 10SM CLR 09/05 A3014 RMK AO2 SLP207 T00940050

TAF (pilot weather forecast)

Forecast is more than 12 hours old.

Closest forecast is Livermore Municipal Airport, 12.3 nm (22.7 km) SW. Retrieved 2019/03/21 00:30 UTC (1 day ago):

TAF KLVK 212327Z 2200/2224 27008KT P6SM FEW060 FM220400 VRB02KT P6SM FEW050 SCT200 FM221400 VRB03KT P6SM VCSH BKN060 OVC100 FM222000 22006KT P6SM -RA OVC040